createdAt,value
2018-08-25T00:02:22.352Z,2.30
2018-08-25T00:04:50.628Z,2.52
2018-08-25T00:07:18.877Z,2.27
2018-08-25T00:09:47.133Z,2.42
2018-08-25T00:12:15.400Z,2.10
2018-08-25T00:14:43.658Z,2.50
2018-08-25T00:17:11.921Z,2.10
2018-08-25T00:19:40.154Z,2.10
2018-08-25T00:22:08.396Z,2.00
2018-08-25T00:24:36.616Z,2.00
2018-08-25T00:27:04.903Z,2.40
2018-08-25T00:29:33.146Z,2.00
2018-08-25T00:32:01.392Z,1.90
2018-08-25T00:34:29.643Z,2.00
2018-08-25T00:36:57.926Z,2.00
2018-08-25T00:39:26.169Z,1.80
2018-08-25T00:41:54.389Z,2.25
2018-08-25T00:44:22.658Z,2.00
2018-08-25T00:46:50.923Z,2.17
2018-08-25T00:49:19.215Z,2.62
2018-08-25T00:51:47.443Z,2.20
2018-08-25T00:54:15.874Z,2.08
2018-08-25T00:56:44.125Z,2.40
2018-08-25T00:59:12.674Z,2.00
2018-08-25T01:01:40.923Z,2.30
2018-08-25T01:04:09.174Z,1.90
2018-08-25T01:06:37.435Z,2.40
2018-08-25T01:09:07.348Z,2.00
2018-08-25T01:11:35.948Z,2.30
2018-08-25T01:14:04.203Z,2.40
2018-08-25T01:16:32.413Z,2.10
2018-08-25T01:19:00.642Z,2.10
2018-08-25T01:21:28.955Z,2.60
2018-08-25T01:23:57.219Z,2.12
2018-08-25T01:26:25.481Z,2.00
2018-08-25T01:28:53.751Z,2.30
2018-08-25T01:31:21.977Z,2.33
2018-08-25T01:33:50.268Z,2.40
2018-08-25T01:36:18.501Z,2.10
2018-08-25T01:38:46.714Z,2.22
2018-08-25T01:41:15.950Z,2.30
2018-08-25T01:43:44.191Z,2.37
2018-08-25T01:46:12.426Z,2.42
2018-08-25T01:48:40.654Z,2.30
2018-08-25T01:51:08.854Z,2.85
2018-08-25T01:53:37.092Z,2.17
2018-08-25T01:56:05.491Z,2.30
2018-08-25T01:58:33.717Z,2.10
2018-08-25T02:01:01.968Z,2.40
2018-08-25T02:03:30.231Z,2.22
2018-08-25T02:05:58.521Z,2.70
2018-08-25T02:08:26.735Z,2.47
2018-08-25T02:10:55.016Z,2.20
2018-08-25T02:13:23.278Z,2.23
2018-08-25T02:15:51.512Z,2.60
2018-08-25T02:18:19.736Z,2.20
2018-08-25T02:20:47.999Z,2.15
2018-08-25T02:23:16.246Z,1.90
2018-08-25T02:25:44.531Z,1.98
2018-08-25T02:28:12.808Z,2.12
2018-08-25T02:30:41.037Z,1.55
2018-08-25T02:33:09.318Z,2.10
2018-08-25T02:35:37.553Z,1.95
2018-08-25T02:38:05.793Z,2.00
2018-08-25T02:40:34.054Z,1.90
2018-08-25T02:43:02.319Z,1.90
2018-08-25T02:45:30.623Z,1.60
2018-08-25T02:47:58.979Z,1.87
2018-08-25T02:50:28.839Z,1.80
2018-08-25T02:52:57.221Z,1.92
2018-08-25T02:55:25.469Z,1.87
2018-08-25T02:57:53.687Z,2.00
2018-08-25T03:00:21.907Z,1.98
2018-08-25T03:02:50.146Z,2.08
2018-08-25T03:05:18.365Z,1.90
2018-08-25T03:07:46.595Z,1.80
2018-08-25T03:10:14.899Z,1.80
2018-08-25T03:12:43.144Z,1.70
2018-08-25T03:15:11.391Z,1.70
2018-08-25T03:17:39.626Z,1.95
2018-08-25T03:20:07.865Z,1.70
2018-08-25T03:22:36.105Z,1.70
2018-08-25T03:25:04.348Z,1.50
2018-08-25T03:27:32.595Z,1.80
2018-08-25T03:30:00.836Z,1.67
2018-08-25T03:32:29.064Z,2.40
2018-08-25T03:34:57.335Z,2.20
2018-08-25T03:42:20.673Z,2.20
2018-08-25T03:44:48.919Z,2.42
2018-08-25T03:47:17.170Z,2.20
2018-08-25T03:49:45.409Z,2.65
2018-08-25T03:52:13.705Z,2.72
2018-08-25T03:54:42.050Z,3.47
2018-08-25T03:57:10.281Z,3.20
2018-08-25T03:59:38.648Z,3.00
2018-08-25T04:02:06.909Z,2.70
2018-08-25T04:04:35.174Z,3.30
2018-08-25T04:07:03.412Z,4.20
2018-08-25T04:09:31.657Z,3.45
2018-08-25T04:11:59.903Z,4.55
2018-08-25T04:14:28.162Z,4.50
2018-08-25T04:16:56.383Z,4.80
2018-08-25T04:19:24.627Z,4.78
2018-08-25T04:21:52.884Z,5.20
2018-08-25T04:24:21.119Z,4.47
2018-08-25T04:26:49.407Z,4.60
2018-08-25T04:29:17.603Z,4.30
2018-08-25T04:31:45.860Z,5.70
2018-08-25T04:34:14.154Z,5.00
2018-08-25T04:36:42.605Z,5.53
2018-08-25T04:39:11.986Z,5.27
2018-08-25T04:41:40.243Z,4.80
2018-08-25T04:44:08.893Z,4.78
2018-08-25T04:46:37.195Z,5.22
2018-08-25T04:49:05.820Z,4.90
2018-08-25T04:51:34.079Z,4.67
2018-08-25T04:54:02.340Z,4.67
2018-08-25T04:56:30.625Z,4.90
2018-08-25T04:58:59.182Z,4.80
2018-08-25T05:01:27.497Z,4.40
2018-08-25T05:03:55.770Z,4.70
2018-08-25T05:06:24.056Z,5.70
2018-08-25T05:08:52.294Z,4.27
2018-08-25T05:11:20.552Z,4.40
2018-08-25T05:13:48.778Z,3.80
2018-08-25T05:16:17.294Z,4.28
2018-08-25T05:18:45.635Z,3.05
2018-08-25T05:21:13.914Z,3.37
2018-08-25T05:23:42.175Z,2.70
2018-08-25T05:26:10.392Z,3.42
2018-08-25T05:28:38.612Z,3.20
2018-08-25T05:31:07.086Z,3.20
2018-08-25T05:33:35.332Z,2.80
2018-08-25T05:36:04.808Z,3.30
2018-08-25T05:38:33.057Z,3.47
2018-08-25T05:41:01.621Z,3.65
2018-08-25T05:43:31.477Z,3.30
2018-08-25T05:46:08.165Z,3.60
2018-08-25T05:48:45.279Z,4.00
2018-08-25T05:51:20.102Z,4.20
2018-08-25T05:53:48.467Z,4.70
2018-08-25T05:56:17.189Z,4.92
2018-08-25T05:58:45.512Z,4.60
2018-08-25T06:01:13.764Z,4.58
2018-08-25T06:03:42.020Z,5.20
2018-08-25T06:06:11.420Z,5.42
2018-08-25T06:08:39.653Z,4.62
2018-08-25T06:11:07.960Z,5.55
2018-08-25T06:13:36.284Z,4.47
2018-08-25T06:16:05.976Z,5.30
2018-08-25T06:18:35.240Z,6.10
2018-08-25T06:21:03.742Z,5.90
2018-08-25T06:23:38.270Z,5.30
2018-08-25T06:26:21.473Z,5.97
2018-08-25T06:28:49.821Z,5.22
2018-08-25T06:31:18.132Z,4.70
2018-08-25T06:33:46.374Z,5.70
2018-08-25T06:36:14.607Z,5.00
2018-08-25T06:38:43.102Z,4.53
2018-08-25T06:41:11.358Z,4.10
2018-08-25T06:43:39.808Z,4.60
2018-08-25T06:46:09.132Z,4.50
2018-08-25T06:48:39.252Z,4.72
2018-08-25T06:51:07.496Z,4.97
2018-08-25T06:53:36.341Z,5.00
2018-08-25T06:56:04.731Z,4.60
2018-08-25T06:58:32.954Z,3.83
2018-08-25T07:01:01.195Z,3.83
2018-08-25T07:03:29.695Z,4.00
2018-08-25T07:05:57.974Z,4.80
2018-08-25T07:08:26.187Z,4.15
2018-08-25T07:10:54.434Z,4.40
2018-08-25T07:13:22.650Z,4.45
2018-08-25T07:15:50.866Z,3.83
2018-08-25T07:18:19.120Z,3.55
2018-08-25T07:20:50.022Z,4.20
2018-08-25T07:23:18.272Z,4.50
2018-08-25T07:25:46.635Z,3.50
2018-08-25T07:28:14.831Z,4.43
2018-08-25T07:30:43.096Z,3.80
2018-08-25T07:33:11.342Z,4.87
2018-08-25T07:35:39.579Z,5.20
2018-08-25T07:38:07.846Z,3.70
2018-08-25T07:40:36.096Z,4.97
2018-08-25T07:43:04.347Z,4.80
2018-08-25T07:45:32.591Z,4.62
2018-08-25T07:48:00.841Z,4.83
2018-08-25T07:50:29.102Z,4.60
2018-08-25T07:52:57.352Z,4.90
2018-08-25T07:55:25.796Z,5.70
2018-08-25T07:57:54.094Z,5.60
2018-08-25T08:00:22.323Z,5.80
2018-08-25T08:02:50.628Z,5.10
2018-08-25T08:05:18.881Z,5.90
2018-08-25T08:07:47.244Z,5.20
2018-08-25T08:10:15.498Z,5.75
2018-08-25T08:12:43.743Z,5.37
2018-08-25T08:15:11.975Z,4.70
2018-08-25T08:17:40.256Z,4.55
2018-08-25T08:20:08.492Z,6.13
2018-08-25T08:22:36.743Z,6.42
2018-08-25T08:25:05.025Z,6.97
2018-08-25T08:27:33.275Z,6.60
2018-08-25T08:30:12.647Z,7.95
2018-08-25T08:32:40.875Z,5.10
2018-08-25T08:35:09.579Z,3.98
2018-08-25T08:37:37.825Z,5.42
2018-08-25T08:40:06.069Z,4.58
2018-08-25T08:42:34.327Z,4.15
2018-08-25T08:45:02.560Z,5.37
2018-08-25T08:47:30.801Z,4.00
2018-08-25T08:49:59.111Z,4.67
2018-08-25T08:52:27.352Z,5.50
2018-08-25T08:54:55.582Z,7.50
2018-08-25T08:57:23.818Z,7.40
2018-08-25T08:59:52.132Z,7.10
2018-08-25T09:02:20.396Z,7.58
2018-08-25T09:04:48.641Z,6.20
2018-08-25T09:07:16.886Z,8.10
2018-08-25T09:09:45.125Z,7.30
2018-08-25T09:12:13.364Z,6.78
2018-08-25T09:14:41.614Z,4.12
2018-08-25T09:17:09.863Z,4.50
2018-08-25T09:19:38.112Z,3.80
2018-08-25T09:22:06.399Z,4.00
2018-08-25T09:24:34.650Z,3.80
2018-08-25T09:27:02.897Z,3.90
2018-08-25T09:29:31.138Z,3.60
2018-08-25T09:31:59.393Z,3.40
2018-08-25T09:34:27.644Z,3.75
2018-08-25T09:36:56.018Z,3.50
2018-08-25T09:39:24.075Z,3.50
2018-08-25T09:42:29.478Z,4.17
2018-08-25T09:44:57.738Z,4.20
2018-08-25T09:47:25.945Z,4.17
2018-08-25T09:49:54.293Z,3.60
2018-08-25T09:52:22.556Z,4.45
2018-08-25T09:54:50.779Z,4.05
2018-08-25T09:57:19.062Z,3.80
2018-08-25T09:59:47.300Z,3.13
2018-08-25T10:02:15.535Z,3.17
2018-08-25T10:04:43.743Z,2.70
2018-08-25T10:07:11.978Z,2.73
2018-08-25T10:09:40.187Z,2.70
2018-08-25T10:12:08.458Z,2.40
2018-08-25T10:14:36.653Z,2.57
2018-08-25T10:17:04.977Z,2.87
2018-08-25T10:19:33.215Z,2.20
2018-08-25T10:22:01.435Z,1.80
2018-08-25T10:24:29.657Z,1.73
2018-08-25T10:26:57.906Z,1.70
2018-08-25T10:29:26.112Z,1.77
2018-08-25T10:31:54.326Z,2.10
2018-08-25T10:34:22.535Z,2.00
2018-08-25T10:36:50.746Z,1.97
2018-08-25T10:39:18.936Z,1.90
2018-08-25T10:41:47.315Z,1.70
2018-08-25T10:44:15.377Z,1.50
2018-08-25T10:46:43.594Z,2.00
2018-08-25T10:49:11.834Z,2.00
2018-08-25T10:51:40.016Z,1.80
2018-08-25T10:54:08.588Z,1.60
2018-08-25T10:56:36.702Z,1.90
2018-08-25T10:59:04.891Z,1.70
2018-08-25T11:01:33.118Z,1.50
2018-08-25T11:04:01.317Z,1.97
2018-08-25T11:06:29.501Z,1.80
2018-08-25T11:08:57.837Z,1.33
2018-08-25T11:11:25.997Z,1.73
2018-08-25T11:13:54.167Z,1.80
2018-08-25T11:16:22.671Z,1.50
2018-08-25T11:18:50.827Z,1.63
2018-08-25T11:21:22.146Z,1.43
2018-08-25T11:23:50.349Z,1.43
2018-08-25T11:26:18.512Z,1.30
2018-08-25T11:28:46.714Z,1.50
2018-08-25T11:31:14.895Z,1.67
2018-08-25T11:33:43.123Z,1.63
2018-08-25T11:36:11.407Z,1.60
2018-08-25T11:38:39.636Z,1.80
2018-08-25T11:41:07.879Z,1.40
2018-08-25T11:43:36.134Z,1.20
2018-08-25T11:46:04.600Z,1.40
2018-08-25T11:58:23.063Z,1.10
2018-08-25T12:00:51.275Z,1.50
2018-08-25T12:03:19.492Z,1.60
2018-08-25T12:05:47.742Z,1.57
2018-08-25T12:08:15.969Z,1.70
2018-08-25T12:10:44.485Z,1.70
2018-08-25T12:13:12.715Z,1.55
2018-08-25T12:15:40.907Z,1.50
2018-08-25T12:18:09.099Z,1.70
2018-08-25T12:20:37.322Z,1.62
2018-08-25T12:23:05.516Z,1.70
2018-08-25T12:25:33.708Z,1.62
2018-08-25T12:28:01.910Z,1.80
2018-08-25T12:30:30.149Z,1.60
2018-08-25T12:32:58.500Z,1.65
2018-08-25T12:35:26.692Z,3.00
2018-08-25T12:37:54.880Z,1.80
2018-08-25T12:40:23.091Z,1.85
2018-08-25T12:42:51.328Z,1.90
2018-08-25T12:45:19.553Z,1.80
2018-08-25T12:47:47.775Z,2.30
2018-08-25T12:50:15.975Z,2.10
2018-08-25T12:52:44.173Z,2.30
2018-08-25T12:55:12.395Z,2.67
2018-08-25T12:57:40.545Z,2.07
2018-08-25T13:00:08.785Z,2.00
2018-08-25T13:02:37.022Z,1.87
2018-08-25T13:05:05.319Z,1.53
2018-08-25T13:07:33.535Z,1.70
2018-08-25T13:10:01.858Z,1.93
2018-08-25T13:12:30.050Z,1.70
2018-08-25T13:14:58.281Z,1.73
2018-08-25T13:17:26.475Z,1.73
2018-08-25T13:19:54.689Z,1.70
2018-08-25T13:22:22.896Z,1.70
2018-08-25T13:24:51.141Z,1.80
2018-08-25T13:27:19.336Z,2.10
2018-08-25T13:29:47.539Z,2.00
2018-08-25T13:32:15.736Z,2.27
2018-08-25T13:37:11.448Z,2.10
2018-08-25T13:39:39.666Z,2.80
2018-08-25T13:42:07.843Z,2.33
2018-08-25T13:44:36.066Z,3.07
2018-08-25T13:47:04.310Z,2.93
2018-08-25T13:49:32.515Z,3.13
2018-08-25T13:52:00.699Z,2.90
2018-08-25T13:54:28.900Z,2.20
2018-08-25T13:56:57.145Z,2.93
2018-08-25T13:59:25.335Z,3.00
2018-08-25T14:01:53.558Z,2.70
2018-08-25T14:04:21.773Z,3.47
2018-08-25T14:06:49.981Z,3.73
2018-08-25T14:09:18.223Z,3.20
2018-08-25T14:11:46.413Z,3.23
2018-08-25T14:14:14.603Z,4.30
2018-08-25T14:16:42.835Z,4.50
2018-08-25T14:19:10.992Z,3.00
2018-08-25T14:21:39.194Z,3.40
2018-08-25T14:24:07.450Z,3.00
2018-08-25T14:26:35.646Z,2.30
2018-08-25T14:29:03.837Z,1.90
2018-08-25T14:31:32.065Z,1.83
2018-08-25T14:34:00.285Z,2.03
2018-08-25T14:36:28.474Z,1.80
2018-08-25T14:38:56.686Z,1.30
2018-08-25T14:41:24.957Z,1.60
2018-08-25T14:43:53.189Z,1.53
2018-08-25T14:46:21.421Z,1.50
2018-08-25T14:48:49.727Z,1.20
2018-08-25T14:51:17.928Z,1.10
2018-08-25T14:53:46.228Z,1.73
2018-08-25T14:56:14.469Z,1.47
2018-08-25T14:58:42.715Z,1.40
2018-08-25T15:01:11.080Z,1.33
2018-08-25T15:03:39.279Z,1.67
2018-08-25T15:06:07.551Z,1.70
2018-08-25T15:08:35.791Z,1.20
2018-08-25T15:11:04.075Z,2.00
2018-08-25T15:13:32.316Z,1.60
2018-08-25T15:16:00.520Z,2.77
2018-08-25T15:18:29.129Z,1.40
2018-08-25T15:20:57.337Z,1.60
2018-08-25T15:23:25.669Z,1.60
2018-08-25T15:25:53.852Z,1.83
2018-08-25T15:28:22.073Z,1.97
2018-08-25T15:30:50.293Z,1.70
2018-08-25T15:33:18.478Z,1.67
2018-08-25T15:35:46.708Z,1.73
2018-08-25T15:38:14.989Z,1.77
2018-08-25T15:40:43.303Z,1.50
2018-08-25T15:43:11.538Z,1.40
2018-08-25T15:45:39.751Z,1.70
2018-08-25T15:48:07.970Z,1.57
2018-08-25T15:50:36.185Z,1.40
2018-08-25T15:53:04.428Z,2.50
2018-08-25T15:55:32.678Z,1.55
2018-08-25T15:58:00.926Z,1.55
2018-08-25T16:00:29.080Z,1.50
2018-08-25T16:02:57.343Z,1.50
2018-08-25T16:05:25.556Z,1.60
2018-08-25T16:07:53.752Z,1.20
2018-08-25T16:10:21.990Z,1.17
2018-08-25T16:12:50.210Z,1.30
2018-08-25T16:15:18.433Z,1.00
2018-08-25T16:17:46.627Z,0.90
2018-08-25T16:20:14.817Z,1.00
2018-08-25T16:22:43.027Z,0.93
2018-08-25T16:25:11.260Z,0.90
2018-08-25T16:27:39.461Z,1.10
2018-08-25T16:30:07.651Z,0.97
2018-08-25T16:32:35.868Z,1.20
2018-08-25T16:35:04.054Z,1.00
2018-08-25T16:37:32.239Z,1.20
2018-08-25T16:40:00.527Z,1.13
2018-08-25T16:42:28.733Z,1.10
2018-08-25T16:44:56.945Z,1.30
2018-08-25T16:47:25.176Z,1.40
2018-08-25T16:49:53.378Z,1.10
2018-08-25T16:52:21.624Z,1.47
2018-08-25T16:54:49.861Z,1.20
2018-08-25T16:57:18.109Z,1.07
2018-08-25T16:59:46.356Z,1.27
2018-08-25T17:02:14.607Z,1.20
2018-08-25T17:04:42.833Z,1.03
2018-08-25T17:07:11.018Z,1.10
2018-08-25T17:09:39.191Z,1.00
2018-08-25T17:12:07.427Z,1.00
2018-08-25T17:14:35.623Z,3.23
2018-08-25T17:17:03.807Z,1.10
2018-08-25T17:19:32.014Z,1.20
2018-08-25T17:22:00.277Z,1.00
2018-08-25T17:24:28.499Z,1.20
2018-08-25T17:26:56.710Z,1.23
2018-08-25T17:29:24.874Z,1.20
2018-08-25T17:31:53.093Z,1.20
2018-08-25T17:34:21.323Z,1.37
2018-08-25T17:36:49.534Z,1.40
2018-08-25T17:39:18.703Z,1.43
2018-08-25T17:41:46.926Z,1.93
2018-08-25T17:44:15.104Z,1.40
2018-08-25T17:46:43.297Z,1.23
2018-08-25T17:49:11.752Z,1.23
2018-08-25T17:51:39.970Z,1.20
2018-08-25T17:54:08.167Z,1.20
2018-08-25T17:56:36.371Z,1.37
2018-08-25T17:59:04.764Z,1.70
2018-08-25T18:01:33.978Z,1.10
2018-08-25T18:04:02.222Z,1.37
2018-08-25T18:06:30.451Z,1.37
2018-08-25T18:08:58.682Z,1.80
2018-08-25T18:11:26.904Z,1.50
2018-08-25T18:13:55.079Z,0.90
2018-08-25T18:16:23.275Z,1.10
2018-08-25T18:18:51.463Z,1.10
2018-08-25T18:21:19.658Z,1.10
2018-08-25T18:23:47.869Z,1.37
2018-08-25T18:26:16.032Z,1.07
2018-08-25T18:28:44.234Z,1.20
2018-08-25T18:31:12.447Z,1.50
2018-08-25T18:33:40.677Z,1.40
2018-08-25T18:36:08.871Z,1.73
2018-08-25T18:38:37.093Z,1.67
2018-08-25T18:41:05.298Z,1.40
2018-08-25T18:43:33.497Z,1.37
2018-08-25T18:46:01.714Z,1.70
2018-08-25T18:48:29.997Z,1.30
2018-08-25T18:50:58.195Z,1.27
2018-08-25T18:53:26.426Z,1.20
2018-08-25T18:55:54.653Z,1.30
2018-08-25T18:58:22.851Z,1.13
2018-08-25T19:00:51.040Z,1.23
2018-08-25T19:03:19.232Z,1.23
2018-08-25T19:05:47.442Z,1.77
2018-08-25T19:08:15.682Z,1.70
2018-08-25T19:10:43.887Z,2.07
2018-08-25T19:13:12.126Z,1.40
2018-08-25T19:15:40.359Z,2.10
2018-08-25T19:18:08.563Z,1.27
2018-08-25T19:20:36.747Z,1.60
2018-08-25T19:23:04.942Z,1.40
2018-08-25T19:25:33.137Z,1.93
2018-08-25T19:28:01.342Z,1.60
2018-08-25T19:30:29.528Z,1.40
2018-08-25T19:32:57.721Z,1.63
2018-08-25T19:35:25.976Z,2.07
2018-08-25T19:37:54.163Z,1.80
2018-08-25T19:40:22.393Z,1.90
2018-08-25T19:42:50.593Z,1.90
2018-08-25T19:45:18.814Z,1.70
2018-08-25T19:47:47.019Z,2.10
2018-08-25T19:50:15.328Z,2.03
2018-08-25T19:52:43.527Z,1.87
2018-08-25T19:55:11.754Z,2.20
2018-08-25T19:57:39.981Z,1.97
2018-08-25T20:00:08.195Z,1.30
2018-08-25T20:02:36.407Z,1.37
2018-08-25T20:05:04.637Z,1.73
2018-08-25T20:07:32.875Z,1.60
2018-08-25T20:10:01.060Z,1.67
2018-08-25T20:12:29.293Z,1.50
2018-08-25T20:14:57.498Z,2.10
2018-08-25T20:17:25.693Z,1.87
2018-08-25T20:19:53.877Z,1.50
2018-08-25T20:22:22.087Z,1.60
2018-08-25T20:24:50.286Z,1.50
2018-08-25T20:27:18.534Z,1.70
2018-08-25T20:29:46.778Z,1.67
2018-08-25T20:32:14.987Z,1.77
2018-08-25T20:34:43.163Z,1.43
2018-08-25T20:37:11.347Z,1.40
2018-08-25T20:39:39.733Z,1.60
2018-08-25T20:42:07.944Z,1.73
2018-08-25T20:44:36.162Z,1.77
2018-08-25T20:47:04.398Z,1.83
2018-08-25T20:49:32.606Z,1.80
2018-08-25T20:52:00.867Z,1.70
2018-08-25T20:54:29.085Z,1.70
2018-08-25T20:56:57.300Z,1.43
2018-08-25T20:59:25.510Z,2.00
2018-08-25T21:01:53.745Z,1.97
2018-08-25T21:04:21.947Z,1.60
2018-08-25T21:06:50.155Z,1.70
2018-08-25T21:09:18.374Z,1.90
2018-08-25T21:11:46.598Z,1.80
2018-08-25T21:14:20.070Z,2.03
2018-08-25T21:16:48.497Z,1.50
2018-08-25T21:19:16.711Z,1.87
2018-08-25T21:21:44.905Z,2.37
2018-08-25T21:24:13.237Z,1.97
2018-08-25T21:26:41.471Z,1.57
2018-08-25T21:29:09.754Z,2.13
2018-08-25T21:31:37.981Z,2.30
2018-08-25T21:34:06.505Z,1.80
2018-08-25T21:36:34.881Z,2.00
2018-08-25T21:39:03.290Z,2.20
2018-08-25T21:41:31.639Z,2.20
2018-08-25T21:43:59.984Z,3.00
2018-08-25T21:46:28.254Z,2.10
2018-08-25T21:48:56.577Z,2.02
2018-08-25T21:51:24.923Z,1.90
2018-08-25T21:53:53.271Z,2.45
2018-08-25T21:56:21.531Z,2.40
2018-08-25T21:58:49.898Z,2.40
2018-08-25T22:01:18.124Z,2.10
2018-08-25T22:03:46.369Z,2.50
2018-08-25T22:06:14.627Z,2.37
2018-08-25T22:08:42.845Z,2.50
2018-08-25T22:11:11.285Z,3.00
2018-08-25T22:13:39.491Z,2.30
2018-08-25T22:16:07.831Z,2.42
2018-08-25T22:18:36.058Z,2.95
2018-08-25T22:21:04.332Z,2.60
2018-08-25T22:23:32.746Z,2.70
2018-08-25T22:26:01.074Z,3.35
2018-08-25T22:28:29.277Z,3.22
2018-08-25T22:30:57.491Z,2.55
2018-08-25T22:33:25.721Z,2.75
2018-08-25T22:35:53.931Z,2.15
2018-08-25T22:38:22.188Z,2.62
2018-08-25T22:40:50.391Z,2.85
2018-08-25T22:43:18.632Z,3.30
2018-08-25T22:45:46.876Z,2.98
2018-08-25T22:48:15.075Z,2.90
2018-08-25T22:50:43.277Z,3.90
2018-08-25T22:53:11.619Z,3.08
2018-08-25T22:55:39.899Z,3.33
2018-08-25T22:58:08.271Z,3.35
2018-08-25T23:00:36.534Z,3.02
2018-08-25T23:03:04.746Z,3.08
2018-08-25T23:05:33.036Z,3.20
2018-08-25T23:08:01.261Z,3.60
2018-08-25T23:10:29.550Z,3.70
2018-08-25T23:12:57.906Z,3.75
2018-08-25T23:15:26.286Z,3.50
2018-08-25T23:17:54.633Z,3.53
2018-08-25T23:20:23.057Z,4.12
2018-08-25T23:22:51.459Z,4.25
2018-08-25T23:25:19.863Z,4.37
2018-08-25T23:27:48.132Z,3.70
2018-08-25T23:30:16.348Z,4.17
2018-08-25T23:32:44.569Z,4.03
2018-08-25T23:35:12.767Z,4.25
2018-08-25T23:37:41.069Z,4.45
2018-08-25T23:40:09.295Z,4.05
2018-08-25T23:42:37.930Z,4.53
2018-08-25T23:45:06.230Z,4.15
2018-08-25T23:47:34.750Z,4.40
2018-08-25T23:50:03.508Z,4.72
2018-08-25T23:52:34.950Z,4.45
2018-08-25T23:55:06.046Z,4.35
2018-08-25T23:57:34.418Z,4.40
